Nearby METAR Reports

 

KSLC - Salt Lake City, Utah, USA
Distance from station: SW 8mi, 13km
Updated: Mon, 16-Jul-2018 9:54am MDT
Mostly cloudy
Mostly cloudy
 Wind from ESE
Wind: ESE 10 mph , 17 km/h
Temperature: 81°F , 27°C
Dew Point: 52°F , 11°C
Humidity: 37%
Barometer: 30.11 inHg , 1019.6 hPa
Clouds: Mostly cloudy
Visibility: 10 miles , 16 km
Cloud details: Few Clouds 9000 ft
Mostly cloudy 14000 ft
Mostly cloudy 22000 ft
2018/07/16 15:54 KSLC 161554Z 11009KT 10SM FEW090 BKN140 BKN220 27/11 A3011 RMK AO2 SLP132 VIRGA OHD AND DSNT NW-N CB DSNT NW SH DSNT NE T02670111 $
KU42 - Salt Lake Muni, Utah, USA
Distance from station: SSW 18mi, 28km
Updated: Mon, 16-Jul-2018 9:55am MDT
Clear
Clear
 Wind from E
Wind: E 6 mph , 9 km/h
Temperature: 79°F , 26°C
Dew Point: 54°F , 12°C
Humidity: 42%
Barometer: 30.16 inHg , 1021.3 hPa
Clouds: Clear
Visibility: 10 miles , 16 km
2018/07/16 15:55 KU42 161555Z AUTO 09005KT 10SM CLR 26/12 A3016 RMK AO1 T02620123
 
KHIF - Hill Afb/Ogden, Utah, USA
Distance from station: NNW 19mi, 30km
Updated: Mon, 16-Jul-2018 9:58am MDT
Light rain, Mostly cloudy
Light rain, Mostly cloudy
 Wind from E
Wind: E 14 mph , 22 km/h
Temperature: 70°F , 21°C
Dew Point: 52°F , 11°C
Humidity: 53%
Barometer: 30.16 inHg , 1021.3 hPa
Summary: Light rain
Clouds: Mostly cloudy
Visibility: 10 miles , 16 km
Cloud details: Few Clouds 4300 ft
Partly cloudy 6000 ft
Partly cloudy 8000 ft
Mostly cloudy 12000 ft
2018/07/16 15:58 KHIF 161558Z 10012KT 10SM -RA FEW043 SCT060 SCT080 BKN120 21/11 A3016 RMK AO2A RAB09 SLP151 P0000 T02070105
KOGD - Ogden, Utah, USA
Distance from station: NNW 25mi, 40km
Updated: Mon, 16-Jul-2018 9:53am MDT
Light rain, Mostly cloudy
Light rain, Mostly cloudy
 Wind from ESE
Wind: ESE 18 mph , 30 km/h
Temperature: 75°F , 24°C
Dew Point: 50°F , 10°C
Humidity: 41%
Barometer: 30.13 inHg , 1020.3 hPa
Summary: Light rain
Clouds: Mostly cloudy
Visibility: 10 miles , 16 km
Cloud details: Partly cloudy 5500 ft
Partly cloudy 7000 ft
Mostly cloudy 9500 ft
2018/07/16 15:53 KOGD 161553Z 11016KT 10SM -RA SCT055 SCT070 BKN095 24/10 A3013 RMK AO2 RAB11 SLP136 P0000 T02440100
 
K36U - Heber/Russ Mcdon, Utah, USA
Distance from station: SE 34mi, 55km
Updated: Wed, 11-Oct-2017 6:50pm MDT
NOT Current
Clear
Clear
 Wind from SSW
Wind: SSW 10 mph , 17 km/h, Gust: 18 mph , 30 km/h
Temperature: 63°F , 17°C
Dew Point: 16°F , -9°C
Humidity: 16%
Barometer: 29.87 inHg , 1011.5 hPa
Clouds: Clear
Visibility: 10 miles , 16 km
2017/10/12 00:50 K36U 120050Z AUTO 21009G16KT 10SM CLR 17/M09 A2987 RMK AO2
KPVU - Provo Muni, Utah, USA
Distance from station: S 45mi, 72km
Updated: Mon, 16-Jul-2018 9:56am MDT
Mostly cloudy
Mostly cloudy
 Wind from varies
Wind: varies 5 mph , 7 km/h
Temperature: 81°F , 27°C
Dew Point: 54°F , 12°C
Humidity: 39%
Barometer: 30.17 inHg , 1021.7 hPa
Clouds: Mostly cloudy
Visibility: 10 miles , 16 km
Cloud details: Few Clouds 12000 ft
Mostly cloudy 18000 ft
2018/07/16 15:56 KPVU 161556Z VRB04KT 10SM FEW120 BKN180 27/12 A3017 RMK AO2 SLP151 T02670122 $